sensor_id;sensor_type;location;lat;lon;timestamp;P1;durP1;ratioP1;P2;durP2;ratioP2
26936;SDS011;14495;48.116;11.676;2023-06-04T00:01:06;8.88;;;4.93;;
26936;SDS011;14495;48.116;11.676;2023-06-04T00:03:33;8.98;;;4.80;;
26936;SDS011;14495;48.116;11.676;2023-06-04T00:05:59;9.35;;;4.63;;
26936;SDS011;14495;48.116;11.676;2023-06-04T00:08:25;11.98;;;4.50;;
26936;SDS011;14495;48.116;11.676;2023-06-04T00:10:50;14.27;;;4.60;;
26936;SDS011;14495;48.116;11.676;2023-06-04T00:13:15;9.20;;;4.35;;
26936;SDS011;14495;48.116;11.676;2023-06-04T00:15:41;9.38;;;4.75;;
26936;SDS011;14495;48.116;11.676;2023-06-04T00:18:06;8.55;;;4.28;;
26936;SDS011;14495;48.116;11.676;2023-06-04T00:20:32;7.88;;;4.30;;
26936;SDS011;14495;48.116;11.676;2023-06-04T00:22:57;8.15;;;4.68;;
26936;SDS011;14495;48.116;11.676;2023-06-04T00:25:22;6.88;;;4.07;;
26936;SDS011;14495;48.116;11.676;2023-06-04T00:27:48;6.45;;;4.30;;
26936;SDS011;14495;48.116;11.676;2023-06-04T00:30:13;7.47;;;4.05;;
26936;SDS011;14495;48.116;11.676;2023-06-04T00:32:39;6.70;;;3.83;;
26936;SDS011;14495;48.116;11.676;2023-06-04T00:35:05;7.35;;;3.85;;
26936;SDS011;14495;48.116;11.676;2023-06-04T00:37:31;7.60;;;3.83;;
26936;SDS011;14495;48.116;11.676;2023-06-04T00:39:56;7.05;;;3.40;;
26936;SDS011;14495;48.116;11.676;2023-06-04T00:42:21;6.22;;;3.60;;
26936;SDS011;14495;48.116;11.676;2023-06-04T00:44:47;7.50;;;3.67;;
26936;SDS011;14495;48.116;11.676;2023-06-04T00:47:13;4.53;;;2.95;;
26936;SDS011;14495;48.116;11.676;2023-06-04T00:49:39;11.32;;;3.42;;
26936;SDS011;14495;48.116;11.676;2023-06-04T00:52:06;6.45;;;3.70;;
26936;SDS011;14495;48.116;11.676;2023-06-04T00:54:36;5.22;;;3.45;;
26936;SDS011;14495;48.116;11.676;2023-06-04T00:57:03;7.80;;;3.67;;
26936;SDS011;14495;48.116;11.676;2023-06-04T00:59:29;4.93;;;3.10;;
26936;SDS011;14495;48.116;11.676;2023-06-04T01:02:01;8.63;;;3.47;;
26936;SDS011;14495;48.116;11.676;2023-06-04T01:04:45;5.97;;;3.55;;
26936;SDS011;14495;48.116;11.676;2023-06-04T01:07:18;7.75;;;3.45;;
26936;SDS011;14495;48.116;11.676;2023-06-04T01:09:44;7.38;;;2.92;;
26936;SDS011;14495;48.116;11.676;2023-06-04T01:12:11;7.32;;;3.38;;
26936;SDS011;14495;48.116;11.676;2023-06-04T01:14:37;5.93;;;3.53;;
26936;SDS011;14495;48.116;11.676;2023-06-04T01:22:33;11.57;;;3.35;;
26936;SDS011;14495;48.116;11.676;2023-06-04T01:25:10;5.47;;;3.58;;
26936;SDS011;14495;48.116;11.676;2023-06-04T01:27:44;4.25;;;2.60;;
26936;SDS011;14495;48.116;11.676;2023-06-04T01:30:14;5.03;;;2.83;;
26936;SDS011;14495;48.116;11.676;2023-06-04T01:32:41;6.05;;;3.05;;
26936;SDS011;14495;48.116;11.676;2023-06-04T01:35:11;4.32;;;2.83;;
26936;SDS011;14495;48.116;11.676;2023-06-04T01:37:41;6.65;;;3.03;;
26936;SDS011;14495;48.116;11.676;2023-06-04T01:40:07;5.38;;;2.85;;
26936;SDS011;14495;48.116;11.676;2023-06-04T01:42:33;7.25;;;3.00;;
26936;SDS011;14495;48.116;11.676;2023-06-04T01:44:59;4.93;;;2.90;;
26936;SDS011;14495;48.116;11.676;2023-06-04T01:47:25;5.50;;;3.30;;
26936;SDS011;14495;48.116;11.676;2023-06-04T01:49:50;8.27;;;2.65;;
26936;SDS011;14495;48.116;11.676;2023-06-04T01:52:16;5.35;;;3.33;;
26936;SDS011;14495;48.116;11.676;2023-06-04T01:54:41;7.55;;;3.47;;
26936;SDS011;14495;48.116;11.676;2023-06-04T01:57:07;4.63;;;2.83;;
26936;SDS011;14495;48.116;11.676;2023-06-04T01:59:34;4.13;;;2.78;;
26936;SDS011;14495;48.116;11.676;2023-06-04T02:02:01;7.82;;;3.25;;
26936;SDS011;14495;48.116;11.676;2023-06-04T02:04:27;6.47;;;2.95;;
26936;SDS011;14495;48.116;11.676;2023-06-04T02:06:53;5.07;;;2.83;;
26936;SDS011;14495;48.116;11.676;2023-06-04T02:09:18;4.53;;;2.67;;
26936;SDS011;14495;48.116;11.676;2023-06-04T02:11:43;8.90;;;3.03;;
26936;SDS011;14495;48.116;11.676;2023-06-04T02:14:09;5.63;;;2.95;;
26936;SDS011;14495;48.116;11.676;2023-06-04T02:16:37;6.00;;;2.92;;
26936;SDS011;14495;48.116;11.676;2023-06-04T02:19:02;5.18;;;2.70;;
26936;SDS011;14495;48.116;11.676;2023-06-04T02:21:28;7.88;;;2.90;;
26936;SDS011;14495;48.116;11.676;2023-06-04T02:23:53;4.15;;;2.72;;
26936;SDS011;14495;48.116;11.676;2023-06-04T02:26:19;4.88;;;3.15;;
26936;SDS011;14495;48.116;11.676;2023-06-04T02:28:44;4.93;;;2.70;;
26936;SDS011;14495;48.116;11.676;2023-06-04T02:31:09;7.57;;;3.28;;
26936;SDS011;14495;48.116;11.676;2023-06-04T02:33:35;7.57;;;3.50;;
26936;SDS011;14495;48.116;11.676;2023-06-04T02:36:00;4.53;;;3.10;;
26936;SDS011;14495;48.116;11.676;2023-06-04T02:38:26;7.70;;;3.08;;
26936;SDS011;14495;48.116;11.676;2023-06-04T02:40:52;6.03;;;3.30;;
26936;SDS011;14495;48.116;11.676;2023-06-04T02:43:17;4.60;;;2.90;;
26936;SDS011;14495;48.116;11.676;2023-06-04T02:45:45;6.10;;;3.40;;
26936;SDS011;14495;48.116;11.676;2023-06-04T02:48:12;6.78;;;3.00;;
26936;SDS011;14495;48.116;11.676;2023-06-04T02:50:37;6.53;;;3.30;;
26936;SDS011;14495;48.116;11.676;2023-06-04T02:53:04;5.82;;;3.00;;
26936;SDS011;14495;48.116;11.676;2023-06-04T02:55:29;8.05;;;3.38;;
26936;SDS011;14495;48.116;11.676;2023-06-04T02:57:54;7.45;;;3.17;;
26936;SDS011;14495;48.116;11.676;2023-06-04T03:00:22;8.32;;;3.05;;
26936;SDS011;14495;48.116;11.676;2023-06-04T03:02:48;5.35;;;3.08;;
26936;SDS011;14495;48.116;11.676;2023-06-04T03:05:14;6.13;;;3.88;;
26936;SDS011;14495;48.116;11.676;2023-06-04T03:07:41;4.80;;;3.30;;
26936;SDS011;14495;48.116;11.676;2023-06-04T03:10:11;6.07;;;3.60;;
26936;SDS011;14495;48.116;11.676;2023-06-04T03:12:38;5.13;;;3.03;;
26936;SDS011;14495;48.116;11.676;2023-06-04T03:15:04;4.63;;;2.72;;
26936;SDS011;14495;48.116;11.676;2023-06-04T03:17:30;8.18;;;3.30;;
26936;SDS011;14495;48.116;11.676;2023-06-04T03:19:56;5.28;;;3.08;;
26936;SDS011;14495;48.116;11.676;2023-06-04T03:22:22;7.78;;;3.00;;
26936;SDS011;14495;48.116;11.676;2023-06-04T03:24:47;7.05;;;3.33;;
26936;SDS011;14495;48.116;11.676;2023-06-04T03:27:13;9.55;;;3.08;;
26936;SDS011;14495;48.116;11.676;2023-06-04T03:29:38;5.00;;;3.00;;
26936;SDS011;14495;48.116;11.676;2023-06-04T03:32:04;7.15;;;3.47;;
26936;SDS011;14495;48.116;11.676;2023-06-04T03:34:30;5.60;;;2.70;;
26936;SDS011;14495;48.116;11.676;2023-06-04T03:36:58;4.50;;;3.38;;
26936;SDS011;14495;48.116;11.676;2023-06-04T03:39:24;5.05;;;3.08;;
26936;SDS011;14495;48.116;11.676;2023-06-04T03:41:50;6.10;;;3.47;;
26936;SDS011;14495;48.116;11.676;2023-06-04T03:44:16;5.55;;;3.30;;
26936;SDS011;14495;48.116;11.676;2023-06-04T03:46:42;5.88;;;3.08;;
26936;SDS011;14495;48.116;11.676;2023-06-04T03:49:09;6.38;;;3.17;;
26936;SDS011;14495;48.116;11.676;2023-06-04T03:51:35;5.57;;;3.80;;
26936;SDS011;14495;48.116;11.676;2023-06-04T03:54:01;5.80;;;3.15;;
26936;SDS011;14495;48.116;11.676;2023-06-04T03:56:27;4.82;;;3.28;;
26936;SDS011;14495;48.116;11.676;2023-06-04T03:58:53;5.43;;;3.35;;
26936;SDS011;14495;48.116;11.676;2023-06-04T04:01:19;4.07;;;2.75;;
26936;SDS011;14495;48.116;11.676;2023-06-04T04:03:44;7.18;;;3.42;;
26936;SDS011;14495;48.116;11.676;2023-06-04T04:06:13;6.25;;;3.20;;
26936;SDS011;14495;48.116;11.676;2023-06-04T04:08:39;6.18;;;3.42;;
26936;SDS011;14495;48.116;11.676;2023-06-04T04:11:09;5.38;;;3.30;;
26936;SDS011;14495;48.116;11.676;2023-06-04T04:13:41;5.75;;;3.15;;
26936;SDS011;14495;48.116;11.676;2023-06-04T04:16:07;6.30;;;3.33;;
26936;SDS011;14495;48.116;11.676;2023-06-04T04:18:32;5.35;;;2.83;;
26936;SDS011;14495;48.116;11.676;2023-06-04T04:20:58;3.65;;;2.83;;
26936;SDS011;14495;48.116;11.676;2023-06-04T04:23:24;6.45;;;2.70;;
26936;SDS011;14495;48.116;11.676;2023-06-04T04:25:50;4.93;;;3.15;;
26936;SDS011;14495;48.116;11.676;2023-06-04T04:28:16;5.22;;;3.42;;
26936;SDS011;14495;48.116;11.676;2023-06-04T04:30:42;5.20;;;3.08;;
26936;SDS011;14495;48.116;11.676;2023-06-04T04:33:09;7.13;;;3.10;;
26936;SDS011;14495;48.116;11.676;2023-06-04T04:35:35;8.07;;;3.10;;
26936;SDS011;14495;48.116;11.676;2023-06-04T04:38:01;5.55;;;3.38;;
26936;SDS011;14495;48.116;11.676;2023-06-04T04:40:30;5.75;;;3.70;;
26936;SDS011;14495;48.116;11.676;2023-06-04T04:42:56;6.82;;;3.40;;
26936;SDS011;14495;48.116;11.676;2023-06-04T04:45:22;6.90;;;3.08;;
26936;SDS011;14495;48.116;11.676;2023-06-04T04:47:48;4.38;;;3.33;;
26936;SDS011;14495;48.116;11.676;2023-06-04T04:50:14;5.22;;;3.42;;
26936;SDS011;14495;48.116;11.676;2023-06-04T04:52:39;9.38;;;3.85;;
26936;SDS011;14495;48.116;11.676;2023-06-04T04:55:05;6.68;;;3.17;;
26936;SDS011;14495;48.116;11.676;2023-06-04T04:57:30;6.15;;;3.20;;
26936;SDS011;14495;48.116;11.676;2023-06-04T04:59:56;6.32;;;3.13;;
26936;SDS011;14495;48.116;11.676;2023-06-04T05:02:21;5.85;;;3.17;;
26936;SDS011;14495;48.116;11.676;2023-06-04T05:04:46;5.95;;;3.28;;
26936;SDS011;14495;48.116;11.676;2023-06-04T05:07:12;10.48;;;3.92;;
26936;SDS011;14495;48.116;11.676;2023-06-04T05:09:37;4.70;;;2.97;;
26936;SDS011;14495;48.116;11.676;2023-06-04T05:12:05;6.50;;;2.85;;
26936;SDS011;14495;48.116;11.676;2023-06-04T05:14:31;6.53;;;2.53;;
26936;SDS011;14495;48.116;11.676;2023-06-04T05:16:57;4.28;;;2.45;;
26936;SDS011;14495;48.116;11.676;2023-06-04T05:19:22;3.85;;;2.30;;
26936;SDS011;14495;48.116;11.676;2023-06-04T05:21:49;4.03;;;2.13;;
26936;SDS011;14495;48.116;11.676;2023-06-04T05:24:14;6.15;;;2.20;;
26936;SDS011;14495;48.116;11.676;2023-06-04T05:26:40;3.78;;;2.40;;
26936;SDS011;14495;48.116;11.676;2023-06-04T05:29:06;4.03;;;2.40;;
26936;SDS011;14495;48.116;11.676;2023-06-04T05:31:32;4.63;;;2.10;;
26936;SDS011;14495;48.116;11.676;2023-06-04T05:33:58;6.15;;;2.65;;
26936;SDS011;14495;48.116;11.676;2023-06-04T05:36:26;7.32;;;2.42;;
26936;SDS011;14495;48.116;11.676;2023-06-04T05:38:52;8.40;;;2.50;;
26936;SDS011;14495;48.116;11.676;2023-06-04T05:41:22;4.80;;;2.55;;
26936;SDS011;14495;48.116;11.676;2023-06-04T05:43:56;5.13;;;2.45;;
26936;SDS011;14495;48.116;11.676;2023-06-04T05:46:21;6.35;;;2.33;;
26936;SDS011;14495;48.116;11.676;2023-06-04T05:48:47;3.03;;;1.85;;
26936;SDS011;14495;48.116;11.676;2023-06-04T05:51:12;5.70;;;2.33;;
26936;SDS011;14495;48.116;11.676;2023-06-04T05:53:39;4.03;;;2.10;;
26936;SDS011;14495;48.116;11.676;2023-06-04T05:56:04;6.15;;;2.80;;
26936;SDS011;14495;48.116;11.676;2023-06-04T05:58:29;3.38;;;1.88;;
26936;SDS011;14495;48.116;11.676;2023-06-04T06:00:56;4.68;;;2.30;;
26936;SDS011;14495;48.116;11.676;2023-06-04T06:03:21;5.15;;;2.22;;
26936;SDS011;14495;48.116;11.676;2023-06-04T06:05:46;5.32;;;2.40;;
26936;SDS011;14495;48.116;11.676;2023-06-04T06:08:13;3.95;;;2.30;;
26936;SDS011;14495;48.116;11.676;2023-06-04T06:10:39;3.60;;;2.10;;
26936;SDS011;14495;48.116;11.676;2023-06-04T06:13:04;3.17;;;1.90;;
26936;SDS011;14495;48.116;11.676;2023-06-04T06:15:30;3.47;;;2.00;;
26936;SDS011;14495;48.116;11.676;2023-06-04T06:17:55;4.07;;;2.15;;
26936;SDS011;14495;48.116;11.676;2023-06-04T06:20:20;5.65;;;2.17;;
26936;SDS011;14495;48.116;11.676;2023-06-04T06:22:49;3.60;;;2.25;;
26936;SDS011;14495;48.116;11.676;2023-06-04T06:25:15;3.20;;;2.10;;
26936;SDS011;14495;48.116;11.676;2023-06-04T06:27:40;4.32;;;2.50;;
26936;SDS011;14495;48.116;11.676;2023-06-04T06:30:07;4.97;;;2.20;;
26936;SDS011;14495;48.116;11.676;2023-06-04T06:32:33;7.80;;;2.10;;
26936;SDS011;14495;48.116;11.676;2023-06-04T06:34:58;3.60;;;2.03;;
26936;SDS011;14495;48.116;11.676;2023-06-04T06:37:24;3.70;;;1.92;;
26936;SDS011;14495;48.116;11.676;2023-06-04T06:39:49;5.15;;;2.17;;
26936;SDS011;14495;48.116;11.676;2023-06-04T06:42:15;8.02;;;2.28;;
26936;SDS011;14495;48.116;11.676;2023-06-04T06:44:42;4.57;;;2.20;;
26936;SDS011;14495;48.116;11.676;2023-06-04T06:47:08;5.70;;;2.15;;
26936;SDS011;14495;48.116;11.676;2023-06-04T06:49:35;3.70;;;2.20;;
26936;SDS011;14495;48.116;11.676;2023-06-04T06:52:00;4.47;;;2.13;;
26936;SDS011;14495;48.116;11.676;2023-06-04T06:54:26;4.38;;;2.40;;
26936;SDS011;14495;48.116;11.676;2023-06-04T06:56:52;5.30;;;2.78;;
26936;SDS011;14495;48.116;11.676;2023-06-04T06:59:18;5.20;;;1.90;;
26936;SDS011;14495;48.116;11.676;2023-06-04T07:01:43;6.80;;;2.05;;
26936;SDS011;14495;48.116;11.676;2023-06-04T07:04:08;6.30;;;2.33;;
26936;SDS011;14495;48.116;11.676;2023-06-04T07:06:34;4.35;;;2.25;;
26936;SDS011;14495;48.116;11.676;2023-06-04T07:09:01;6.03;;;2.58;;
26936;SDS011;14495;48.116;11.676;2023-06-04T07:11:30;4.57;;;2.35;;
26936;SDS011;14495;48.116;11.676;2023-06-04T07:13:55;3.42;;;2.30;;
26936;SDS011;14495;48.116;11.676;2023-06-04T07:16:21;3.95;;;2.30;;
26936;SDS011;14495;48.116;11.676;2023-06-04T07:18:47;4.40;;;2.20;;
26936;SDS011;14495;48.116;11.676;2023-06-04T07:21:14;2.97;;;2.00;;
26936;SDS011;14495;48.116;11.676;2023-06-04T07:23:40;4.85;;;2.47;;
26936;SDS011;14495;48.116;11.676;2023-06-04T07:26:05;4.03;;;2.40;;
26936;SDS011;14495;48.116;11.676;2023-06-04T07:28:30;3.50;;;2.13;;
26936;SDS011;14495;48.116;11.676;2023-06-04T07:30:57;5.55;;;2.08;;
26936;SDS011;14495;48.116;11.676;2023-06-04T07:33:23;4.43;;;2.10;;
26936;SDS011;14495;48.116;11.676;2023-06-04T07:35:49;4.22;;;2.38;;
26936;SDS011;14495;48.116;11.676;2023-06-04T07:38:14;4.25;;;2.40;;
26936;SDS011;14495;48.116;11.676;2023-06-04T07:40:40;3.60;;;2.00;;
26936;SDS011;14495;48.116;11.676;2023-06-04T07:43:05;7.18;;;2.42;;
26936;SDS011;14495;48.116;11.676;2023-06-04T07:45:30;3.00;;;2.17;;
26936;SDS011;14495;48.116;11.676;2023-06-04T07:47:56;5.10;;;2.28;;
26936;SDS011;14495;48.116;11.676;2023-06-04T07:50:21;3.95;;;2.35;;
26936;SDS011;14495;48.116;11.676;2023-06-04T07:52:47;4.43;;;2.30;;
26936;SDS011;14495;48.116;11.676;2023-06-04T07:55:12;4.75;;;2.30;;
26936;SDS011;14495;48.116;11.676;2023-06-04T07:57:37;3.75;;;2.15;;
26936;SDS011;14495;48.116;11.676;2023-06-04T08:00:03;3.50;;;1.90;;
26936;SDS011;14495;48.116;11.676;2023-06-04T08:02:29;4.00;;;2.10;;
26936;SDS011;14495;48.116;11.676;2023-06-04T08:04:55;3.15;;;1.75;;
26936;SDS011;14495;48.116;11.676;2023-06-04T08:07:21;5.15;;;2.10;;
26936;SDS011;14495;48.116;11.676;2023-06-04T08:09:46;5.68;;;2.03;;
26936;SDS011;14495;48.116;11.676;2023-06-04T08:12:12;5.03;;;2.08;;
26936;SDS011;14495;48.116;11.676;2023-06-04T08:14:41;4.53;;;2.13;;
26936;SDS011;14495;48.116;11.676;2023-06-04T08:17:06;3.30;;;2.20;;
26936;SDS011;14495;48.116;11.676;2023-06-04T08:19:32;5.75;;;2.20;;
26936;SDS011;14495;48.116;11.676;2023-06-04T08:21:57;7.65;;;2.22;;
26936;SDS011;14495;48.116;11.676;2023-06-04T08:24:22;5.57;;;2.20;;
26936;SDS011;14495;48.116;11.676;2023-06-04T08:26:48;3.00;;;1.92;;
26936;SDS011;14495;48.116;11.676;2023-06-04T08:29:13;7.15;;;2.70;;
26936;SDS011;14495;48.116;11.676;2023-06-04T08:31:38;4.13;;;2.15;;
26936;SDS011;14495;48.116;11.676;2023-06-04T08:34:04;4.75;;;2.10;;
26936;SDS011;14495;48.116;11.676;2023-06-04T08:36:30;3.33;;;1.95;;
26936;SDS011;14495;48.116;11.676;2023-06-04T08:38:57;9.00;;;2.08;;
26936;SDS011;14495;48.116;11.676;2023-06-04T08:41:30;6.43;;;1.90;;
26936;SDS011;14495;48.116;11.676;2023-06-04T08:44:07;4.72;;;2.17;;
26936;SDS011;14495;48.116;11.676;2023-06-04T08:46:36;3.95;;;1.98;;
26936;SDS011;14495;48.116;11.676;2023-06-04T08:49:04;3.53;;;2.03;;
26936;SDS011;14495;48.116;11.676;2023-06-04T08:51:32;3.50;;;2.05;;
26936;SDS011;14495;48.116;11.676;2023-06-04T08:53:59;4.03;;;2.13;;
26936;SDS011;14495;48.116;11.676;2023-06-04T08:56:25;2.95;;;1.88;;
26936;SDS011;14495;48.116;11.676;2023-06-04T08:58:55;5.80;;;2.10;;
26936;SDS011;14495;48.116;11.676;2023-06-04T09:01:24;3.67;;;1.75;;
26936;SDS011;14495;48.116;11.676;2023-06-04T09:03:50;3.63;;;1.92;;
26936;SDS011;14495;48.116;11.676;2023-06-04T09:06:16;3.88;;;1.70;;
26936;SDS011;14495;48.116;11.676;2023-06-04T09:08:42;2.50;;;1.88;;
26936;SDS011;14495;48.116;11.676;2023-06-04T09:11:10;6.03;;;2.25;;
26936;SDS011;14495;48.116;11.676;2023-06-04T09:13:38;4.22;;;1.90;;
26936;SDS011;14495;48.116;11.676;2023-06-04T09:16:05;4.35;;;1.67;;
26936;SDS011;14495;48.116;11.676;2023-06-04T09:18:31;3.88;;;1.85;;
26936;SDS011;14495;48.116;11.676;2023-06-04T09:21:06;3.17;;;1.83;;
26936;SDS011;14495;48.116;11.676;2023-06-04T09:26:08;3.08;;;2.00;;
26936;SDS011;14495;48.116;11.676;2023-06-04T09:28:34;5.93;;;2.30;;
26936;SDS011;14495;48.116;11.676;2023-06-04T09:31:00;5.80;;;2.35;;
26936;SDS011;14495;48.116;11.676;2023-06-04T09:33:27;3.28;;;1.55;;
26936;SDS011;14495;48.116;11.676;2023-06-04T09:35:56;2.70;;;1.80;;
26936;SDS011;14495;48.116;11.676;2023-06-04T09:38:22;2.75;;;1.77;;
26936;SDS011;14495;48.116;11.676;2023-06-04T09:40:48;3.53;;;1.58;;
26936;SDS011;14495;48.116;11.676;2023-06-04T09:43:23;4.13;;;2.10;;
26936;SDS011;14495;48.116;11.676;2023-06-04T09:45:49;2.28;;;1.50;;
26936;SDS011;14495;48.116;11.676;2023-06-04T09:48:20;3.72;;;1.40;;
26936;SDS011;14495;48.116;11.676;2023-06-04T09:50:48;3.90;;;2.10;;
26936;SDS011;14495;48.116;11.676;2023-06-04T09:53:20;6.70;;;2.03;;
26936;SDS011;14495;48.116;11.676;2023-06-04T09:56:00;2.80;;;2.05;;
26936;SDS011;14495;48.116;11.676;2023-06-04T09:58:28;5.78;;;2.10;;
26936;SDS011;14495;48.116;11.676;2023-06-04T10:00:55;5.03;;;1.60;;
26936;SDS011;14495;48.116;11.676;2023-06-04T10:03:25;4.00;;;2.38;;
26936;SDS011;14495;48.116;11.676;2023-06-04T10:05:56;4.07;;;2.10;;
26936;SDS011;14495;48.116;11.676;2023-06-04T10:08:22;3.88;;;1.60;;
26936;SDS011;14495;48.116;11.676;2023-06-04T10:10:51;3.60;;;1.90;;
26936;SDS011;14495;48.116;11.676;2023-06-04T10:13:21;7.47;;;1.98;;
26936;SDS011;14495;48.116;11.676;2023-06-04T10:15:49;6.25;;;2.42;;
26936;SDS011;14495;48.116;11.676;2023-06-04T10:18:15;6.88;;;3.08;;
26936;SDS011;14495;48.116;11.676;2023-06-04T10:20:41;4.97;;;2.25;;
26936;SDS011;14495;48.116;11.676;2023-06-04T10:23:07;5.47;;;1.85;;
26936;SDS011;14495;48.116;11.676;2023-06-04T10:25:36;17.65;;;8.38;;
26936;SDS011;14495;48.116;11.676;2023-06-04T10:28:02;4.97;;;2.40;;
26936;SDS011;14495;48.116;11.676;2023-06-04T10:30:31;4.38;;;2.97;;
26936;SDS011;14495;48.116;11.676;2023-06-04T10:32:56;3.92;;;1.98;;
26936;SDS011;14495;48.116;11.676;2023-06-04T10:35:32;3.80;;;1.90;;
26936;SDS011;14495;48.116;11.676;2023-06-04T10:38:07;3.08;;;1.95;;
26936;SDS011;14495;48.116;11.676;2023-06-04T10:40:38;2.38;;;1.67;;
26936;SDS011;14495;48.116;11.676;2023-06-04T10:43:07;2.22;;;1.50;;
26936;SDS011;14495;48.116;11.676;2023-06-04T10:45:41;4.95;;;2.33;;
26936;SDS011;14495;48.116;11.676;2023-06-04T10:48:09;3.28;;;2.15;;
26936;SDS011;14495;48.116;11.676;2023-06-04T10:50:50;4.75;;;2.65;;
26936;SDS011;14495;48.116;11.676;2023-06-04T10:53:17;5.50;;;2.40;;
26936;SDS011;14495;48.116;11.676;2023-06-04T10:55:44;3.75;;;1.92;;
26936;SDS011;14495;48.116;11.676;2023-06-04T10:58:11;4.47;;;2.20;;
26936;SDS011;14495;48.116;11.676;2023-06-04T11:00:40;6.53;;;2.35;;
26936;SDS011;14495;48.116;11.676;2023-06-04T11:03:08;3.20;;;2.38;;
26936;SDS011;14495;48.116;11.676;2023-06-04T11:08:05;6.88;;;2.65;;
26936;SDS011;14495;48.116;11.676;2023-06-04T11:10:35;7.97;;;2.03;;
26936;SDS011;14495;48.116;11.676;2023-06-04T11:13:03;4.53;;;2.30;;
26936;SDS011;14495;48.116;11.676;2023-06-04T11:15:42;5.43;;;2.05;;
26936;SDS011;14495;48.116;11.676;2023-06-04T11:18:12;7.60;;;2.10;;
26936;SDS011;14495;48.116;11.676;2023-06-04T11:20:43;3.30;;;2.25;;
26936;SDS011;14495;48.116;11.676;2023-06-04T11:23:11;3.13;;;1.67;;
26936;SDS011;14495;48.116;11.676;2023-06-04T11:25:37;4.88;;;1.90;;
26936;SDS011;14495;48.116;11.676;2023-06-04T11:28:02;4.95;;;2.05;;
26936;SDS011;14495;48.116;11.676;2023-06-04T11:30:28;4.47;;;2.25;;
26936;SDS011;14495;48.116;11.676;2023-06-04T11:33:00;3.88;;;2.20;;
26936;SDS011;14495;48.116;11.676;2023-06-04T11:35:26;4.13;;;2.25;;
26936;SDS011;14495;48.116;11.676;2023-06-04T11:37:52;3.75;;;1.98;;
26936;SDS011;14495;48.116;11.676;2023-06-04T11:40:20;5.90;;;2.40;;
26936;SDS011;14495;48.116;11.676;2023-06-04T11:42:48;4.85;;;1.98;;
26936;SDS011;14495;48.116;11.676;2023-06-04T11:45:15;3.67;;;2.25;;
26936;SDS011;14495;48.116;11.676;2023-06-04T11:47:48;8.23;;;2.28;;
26936;SDS011;14495;48.116;11.676;2023-06-04T11:50:16;7.38;;;2.03;;
26936;SDS011;14495;48.116;11.676;2023-06-04T11:52:42;8.30;;;2.10;;
26936;SDS011;14495;48.116;11.676;2023-06-04T11:55:08;4.75;;;1.90;;
26936;SDS011;14495;48.116;11.676;2023-06-04T11:57:35;3.28;;;2.03;;
26936;SDS011;14495;48.116;11.676;2023-06-04T12:00:01;3.03;;;1.77;;
26936;SDS011;14495;48.116;11.676;2023-06-04T12:02:27;4.97;;;2.22;;
26936;SDS011;14495;48.116;11.676;2023-06-04T12:04:53;7.30;;;2.28;;
26936;SDS011;14495;48.116;11.676;2023-06-04T12:07:21;4.10;;;2.15;;
26936;SDS011;14495;48.116;11.676;2023-06-04T12:09:50;3.55;;;2.17;;
26936;SDS011;14495;48.116;11.676;2023-06-04T12:12:20;3.70;;;2.30;;
26936;SDS011;14495;48.116;11.676;2023-06-04T12:17:12;10.52;;;2.53;;
26936;SDS011;14495;48.116;11.676;2023-06-04T12:19:47;2.97;;;1.85;;
26936;SDS011;14495;48.116;11.676;2023-06-04T12:22:14;4.18;;;2.40;;
26936;SDS011;14495;48.116;11.676;2023-06-04T12:24:52;5.65;;;2.22;;
26936;SDS011;14495;48.116;11.676;2023-06-04T12:27:19;6.78;;;2.50;;
26936;SDS011;14495;48.116;11.676;2023-06-04T12:32:28;5.30;;;2.17;;
26936;SDS011;14495;48.116;11.676;2023-06-04T12:34:54;5.20;;;2.35;;
26936;SDS011;14495;48.116;11.676;2023-06-04T12:37:20;4.72;;;2.33;;
26936;SDS011;14495;48.116;11.676;2023-06-04T12:39:50;4.60;;;2.30;;
26936;SDS011;14495;48.116;11.676;2023-06-04T12:42:16;5.35;;;2.20;;
26936;SDS011;14495;48.116;11.676;2023-06-04T12:44:43;3.17;;;1.95;;
26936;SDS011;14495;48.116;11.676;2023-06-04T12:47:12;3.67;;;2.33;;
26936;SDS011;14495;48.116;11.676;2023-06-04T12:49:37;5.85;;;2.00;;
26936;SDS011;14495;48.116;11.676;2023-06-04T12:52:05;5.20;;;2.25;;
26936;SDS011;14495;48.116;11.676;2023-06-04T12:54:31;5.10;;;2.22;;
26936;SDS011;14495;48.116;11.676;2023-06-04T12:57:00;3.58;;;2.40;;
26936;SDS011;14495;48.116;11.676;2023-06-04T12:59:26;4.93;;;2.05;;
26936;SDS011;14495;48.116;11.676;2023-06-04T13:01:53;5.65;;;2.45;;
26936;SDS011;14495;48.116;11.676;2023-06-04T13:04:19;3.58;;;2.28;;
26936;SDS011;14495;48.116;11.676;2023-06-04T13:06:44;3.85;;;2.40;;
26936;SDS011;14495;48.116;11.676;2023-06-04T13:09:13;4.63;;;2.00;;
26936;SDS011;14495;48.116;11.676;2023-06-04T13:11:39;7.53;;;2.15;;
26936;SDS011;14495;48.116;11.676;2023-06-04T13:14:06;4.18;;;2.00;;
26936;SDS011;14495;48.116;11.676;2023-06-04T13:16:32;4.05;;;2.20;;
26936;SDS011;14495;48.116;11.676;2023-06-04T13:18:58;3.60;;;2.13;;
26936;SDS011;14495;48.116;11.676;2023-06-04T13:21:23;5.75;;;2.20;;
26936;SDS011;14495;48.116;11.676;2023-06-04T13:23:48;3.53;;;2.10;;
26936;SDS011;14495;48.116;11.676;2023-06-04T13:26:15;4.70;;;2.55;;
26936;SDS011;14495;48.116;11.676;2023-06-04T13:28:41;4.72;;;2.03;;
26936;SDS011;14495;48.116;11.676;2023-06-04T13:31:06;5.25;;;2.83;;
26936;SDS011;14495;48.116;11.676;2023-06-04T13:33:31;4.85;;;2.10;;
26936;SDS011;14495;48.116;11.676;2023-06-04T13:35:59;3.42;;;2.40;;
26936;SDS011;14495;48.116;11.676;2023-06-04T13:38:25;4.15;;;2.40;;
26936;SDS011;14495;48.116;11.676;2023-06-04T13:40:50;6.65;;;2.60;;
26936;SDS011;14495;48.116;11.676;2023-06-04T13:43:15;3.35;;;1.92;;
26936;SDS011;14495;48.116;11.676;2023-06-04T13:45:41;4.28;;;2.72;;
26936;SDS011;14495;48.116;11.676;2023-06-04T13:48:10;5.57;;;2.38;;
26936;SDS011;14495;48.116;11.676;2023-06-04T13:50:36;4.03;;;2.05;;
26936;SDS011;14495;48.116;11.676;2023-06-04T13:53:01;4.10;;;2.50;;
26936;SDS011;14495;48.116;11.676;2023-06-04T13:55:27;6.68;;;2.15;;
26936;SDS011;14495;48.116;11.676;2023-06-04T13:57:52;2.80;;;2.28;;
26936;SDS011;14495;48.116;11.676;2023-06-04T14:00:17;4.07;;;2.40;;
26936;SDS011;14495;48.116;11.676;2023-06-04T14:02:43;3.58;;;2.25;;
26936;SDS011;14495;48.116;11.676;2023-06-04T14:05:08;4.93;;;1.92;;
26936;SDS011;14495;48.116;11.676;2023-06-04T14:07:34;3.90;;;2.10;;
26936;SDS011;14495;48.116;11.676;2023-06-04T14:10:00;4.05;;;2.00;;
26936;SDS011;14495;48.116;11.676;2023-06-04T14:12:25;5.18;;;2.45;;
26936;SDS011;14495;48.116;11.676;2023-06-04T14:14:51;5.35;;;2.45;;
26936;SDS011;14495;48.116;11.676;2023-06-04T14:17:16;4.10;;;2.55;;
26936;SDS011;14495;48.116;11.676;2023-06-04T14:19:42;4.10;;;2.42;;
26936;SDS011;14495;48.116;11.676;2023-06-04T14:22:09;2.90;;;2.15;;
26936;SDS011;14495;48.116;11.676;2023-06-04T14:24:35;3.80;;;2.30;;
26936;SDS011;14495;48.116;11.676;2023-06-04T14:27:00;4.22;;;2.20;;
26936;SDS011;14495;48.116;11.676;2023-06-04T14:29:25;3.80;;;2.00;;
26936;SDS011;14495;48.116;11.676;2023-06-04T14:31:51;7.07;;;2.55;;
26936;SDS011;14495;48.116;11.676;2023-06-04T14:34:16;5.18;;;2.10;;
26936;SDS011;14495;48.116;11.676;2023-06-04T14:36:45;6.40;;;2.42;;
26936;SDS011;14495;48.116;11.676;2023-06-04T14:39:11;4.00;;;2.25;;
26936;SDS011;14495;48.116;11.676;2023-06-04T14:41:36;3.97;;;2.08;;
26936;SDS011;14495;48.116;11.676;2023-06-04T14:44:01;4.45;;;2.35;;
26936;SDS011;14495;48.116;11.676;2023-06-04T14:46:27;5.90;;;2.33;;